sensor_id;sensor_type;location;lat;lon;timestamp;temperature;humidity
51950;DHT22;37974;53.218;6.640;2022-08-21T00:00:50;15.10;99.90
51950;DHT22;37974;53.218;6.640;2022-08-21T00:03:22;15.00;99.90
51950;DHT22;37974;53.218;6.640;2022-08-21T00:06:06;15.00;99.90
51950;DHT22;37974;53.218;6.640;2022-08-21T00:08:53;15.00;99.90
51950;DHT22;37974;53.218;6.640;2022-08-21T00:14:16;14.90;99.90
51950;DHT22;37974;53.218;6.640;2022-08-21T00:17:02;14.90;99.90
51950;DHT22;37974;53.218;6.640;2022-08-21T00:23:09;14.90;99.90
51950;DHT22;37974;53.218;6.640;2022-08-21T00:26:08;14.80;99.90
51950;DHT22;37974;53.218;6.640;2022-08-21T00:32:20;14.80;99.90
51950;DHT22;37974;53.218;6.640;2022-08-21T00:35:05;14.90;99.90
51950;DHT22;37974;53.218;6.640;2022-08-21T00:43:45;14.50;99.90
51950;DHT22;37974;53.218;6.640;2022-08-21T00:46:41;14.50;99.90
51950;DHT22;37974;53.218;6.640;2022-08-21T00:49:42;14.40;99.90
51950;DHT22;37974;53.218;6.640;2022-08-21T00:55:51;14.30;99.90
51950;DHT22;37974;53.218;6.640;2022-08-21T00:58:54;14.10;99.90
51950;DHT22;37974;53.218;6.640;2022-08-21T01:01:45;14.20;99.90
51950;DHT22;37974;53.218;6.640;2022-08-21T01:05:01;14.10;99.90
51950;DHT22;37974;53.218;6.640;2022-08-21T01:07:48;14.10;99.90
51950;DHT22;37974;53.218;6.640;2022-08-21T01:10:42;14.10;99.90
51950;DHT22;37974;53.218;6.640;2022-08-21T01:13:11;14.10;99.90
51950;DHT22;37974;53.218;6.640;2022-08-21T01:19:01;14.10;99.90
51950;DHT22;37974;53.218;6.640;2022-08-21T01:24:46;14.00;99.90
51950;DHT22;37974;53.218;6.640;2022-08-21T01:27:24;14.00;99.90
51950;DHT22;37974;53.218;6.640;2022-08-21T01:30:47;14.00;99.90
51950;DHT22;37974;53.218;6.640;2022-08-21T01:33:15;14.00;99.90
51950;DHT22;37974;53.218;6.640;2022-08-21T01:35:56;13.90;99.90
51950;DHT22;37974;53.218;6.640;2022-08-21T01:39:05;14.00;99.90
51950;DHT22;37974;53.218;6.640;2022-08-21T01:41:49;14.00;99.90
51950;DHT22;37974;53.218;6.640;2022-08-21T01:44:35;14.00;99.90
51950;DHT22;37974;53.218;6.640;2022-08-21T01:47:36;14.00;99.90
51950;DHT22;37974;53.218;6.640;2022-08-21T01:50:25;14.00;99.90
51950;DHT22;37974;53.218;6.640;2022-08-21T01:56:09;14.10;99.90
51950;DHT22;37974;53.218;6.640;2022-08-21T01:58:48;14.10;99.90
51950;DHT22;37974;53.218;6.640;2022-08-21T02:04:22;14.10;99.90
51950;DHT22;37974;53.218;6.640;2022-08-21T02:07:36;14.00;99.90
51950;DHT22;37974;53.218;6.640;2022-08-21T02:10:00;14.00;99.90
51950;DHT22;37974;53.218;6.640;2022-08-21T02:12:46;14.00;99.90
51950;DHT22;37974;53.218;6.640;2022-08-21T02:16:03;14.00;99.90
51950;DHT22;37974;53.218;6.640;2022-08-21T02:18:11;14.00;99.90
51950;DHT22;37974;53.218;6.640;2022-08-21T02:24:04;13.90;99.90
51950;DHT22;37974;53.218;6.640;2022-08-21T02:26:35;13.80;99.90
51950;DHT22;37974;53.218;6.640;2022-08-21T02:29:36;13.80;99.90
51950;DHT22;37974;53.218;6.640;2022-08-21T02:35:07;13.60;99.90
51950;DHT22;37974;53.218;6.640;2022-08-21T02:38:09;13.70;99.90
51950;DHT22;37974;53.218;6.640;2022-08-21T02:48:21;13.60;99.90
51950;DHT22;37974;53.218;6.640;2022-08-21T02:51:28;13.50;99.90
51950;DHT22;37974;53.218;6.640;2022-08-21T02:54:29;13.90;99.90
51950;DHT22;37974;53.218;6.640;2022-08-21T02:57:03;13.40;99.90
51950;DHT22;37974;53.218;6.640;2022-08-21T03:00:29;13.40;99.90
51950;DHT22;37974;53.218;6.640;2022-08-21T03:03:05;13.40;99.90
51950;DHT22;37974;53.218;6.640;2022-08-21T03:06:02;13.40;99.90
51950;DHT22;37974;53.218;6.640;2022-08-21T03:12:06;13.70;99.90
51950;DHT22;37974;53.218;6.640;2022-08-21T03:18:36;13.70;99.90
51950;DHT22;37974;53.218;6.640;2022-08-21T03:21:36;13.80;99.90
51950;DHT22;37974;53.218;6.640;2022-08-21T03:27:14;13.80;99.90
51950;DHT22;37974;53.218;6.640;2022-08-21T03:30:19;13.80;99.90
51950;DHT22;37974;53.218;6.640;2022-08-21T03:33:39;13.80;99.90
51950;DHT22;37974;53.218;6.640;2022-08-21T03:39:33;13.60;99.90
51950;DHT22;37974;53.218;6.640;2022-08-21T03:42:50;13.80;99.90
51950;DHT22;37974;53.218;6.640;2022-08-21T03:45:28;13.70;99.90
51950;DHT22;37974;53.218;6.640;2022-08-21T03:48:19;13.70;99.90
51950;DHT22;37974;53.218;6.640;2022-08-21T03:51:53;13.70;99.90
51950;DHT22;37974;53.218;6.640;2022-08-21T03:54:43;13.70;99.90
51950;DHT22;37974;53.218;6.640;2022-08-21T03:58:13;13.80;99.90
51950;DHT22;37974;53.218;6.640;2022-08-21T04:01:11;13.60;99.90
51950;DHT22;37974;53.218;6.640;2022-08-21T04:07:00;13.80;99.90
51950;DHT22;37974;53.218;6.640;2022-08-21T04:09:38;13.80;99.90
51950;DHT22;37974;53.218;6.640;2022-08-21T04:12:14;13.90;99.90
51950;DHT22;37974;53.218;6.640;2022-08-21T04:15:30;13.70;99.90
51950;DHT22;37974;53.218;6.640;2022-08-21T04:18:30;13.90;99.90
51950;DHT22;37974;53.218;6.640;2022-08-21T04:21:17;13.90;99.90
51950;DHT22;37974;53.218;6.640;2022-08-21T04:24:14;13.90;99.90
51950;DHT22;37974;53.218;6.640;2022-08-21T04:26:53;13.90;99.90
51950;DHT22;37974;53.218;6.640;2022-08-21T04:29:48;13.90;99.90
51950;DHT22;37974;53.218;6.640;2022-08-21T04:32:32;13.90;99.90
51950;DHT22;37974;53.218;6.640;2022-08-21T04:35:25;13.80;99.90
51950;DHT22;37974;53.218;6.640;2022-08-21T04:38:00;13.90;99.90
51950;DHT22;37974;53.218;6.640;2022-08-21T04:40:39;13.90;99.90
51950;DHT22;37974;53.218;6.640;2022-08-21T04:43:12;13.90;99.90
51950;DHT22;37974;53.218;6.640;2022-08-21T04:49:17;14.00;99.90
51950;DHT22;37974;53.218;6.640;2022-08-21T04:57:25;13.80;99.90
51950;DHT22;37974;53.218;6.640;2022-08-21T04:59:52;14.00;99.90
51950;DHT22;37974;53.218;6.640;2022-08-21T05:02:18;14.00;99.90
51950;DHT22;37974;53.218;6.640;2022-08-21T05:04:50;14.10;99.90
51950;DHT22;37974;53.218;6.640;2022-08-21T05:07:22;14.10;99.90
51950;DHT22;37974;53.218;6.640;2022-08-21T05:09:51;14.20;99.90
51950;DHT22;37974;53.218;6.640;2022-08-21T05:12:17;14.20;99.90
51950;DHT22;37974;53.218;6.640;2022-08-21T05:14:43;14.30;99.90
51950;DHT22;37974;53.218;6.640;2022-08-21T05:17:09;14.30;99.90
51950;DHT22;37974;53.218;6.640;2022-08-21T05:19:35;14.30;99.90
51950;DHT22;37974;53.218;6.640;2022-08-21T05:22:01;14.40;99.90
51950;DHT22;37974;53.218;6.640;2022-08-21T05:24:27;14.40;99.90
51950;DHT22;37974;53.218;6.640;2022-08-21T05:26:53;14.50;99.90
51950;DHT22;37974;53.218;6.640;2022-08-21T05:29:19;14.50;99.90
51950;DHT22;37974;53.218;6.640;2022-08-21T05:31:45;14.60;99.90
51950;DHT22;37974;53.218;6.640;2022-08-21T05:34:18;14.60;99.90
51950;DHT22;37974;53.218;6.640;2022-08-21T05:36:44;14.70;99.90
51950;DHT22;37974;53.218;6.640;2022-08-21T05:39:10;14.70;99.90
51950;DHT22;37974;53.218;6.640;2022-08-21T05:41:36;14.80;99.90
51950;DHT22;37974;53.218;6.640;2022-08-21T05:44:02;14.80;99.90
51950;DHT22;37974;53.218;6.640;2022-08-21T05:46:27;14.90;99.90
51950;DHT22;37974;53.218;6.640;2022-08-21T05:48:53;15.00;99.90
51950;DHT22;37974;53.218;6.640;2022-08-21T05:51:19;15.00;99.90
51950;DHT22;37974;53.218;6.640;2022-08-21T05:53:45;15.30;99.90
51950;DHT22;37974;53.218;6.640;2022-08-21T05:56:12;15.10;99.90
51950;DHT22;37974;53.218;6.640;2022-08-21T05:58:41;15.20;99.90
51950;DHT22;37974;53.218;6.640;2022-08-21T06:01:09;15.40;99.90
51950;DHT22;37974;53.218;6.640;2022-08-21T06:03:39;15.40;99.90
51950;DHT22;37974;53.218;6.640;2022-08-21T06:06:14;15.50;99.90
51950;DHT22;37974;53.218;6.640;2022-08-21T06:08:41;15.50;99.90
51950;DHT22;37974;53.218;6.640;2022-08-21T06:11:07;15.60;99.90
51950;DHT22;37974;53.218;6.640;2022-08-21T06:13:35;15.70;99.90
51950;DHT22;37974;53.218;6.640;2022-08-21T06:16:05;15.80;99.90
51950;DHT22;37974;53.218;6.640;2022-08-21T06:18:32;15.90;99.90
51950;DHT22;37974;53.218;6.640;2022-08-21T06:20:58;16.00;99.90
51950;DHT22;37974;53.218;6.640;2022-08-21T06:23:24;16.10;99.90
51950;DHT22;37974;53.218;6.640;2022-08-21T06:25:49;16.20;99.90
51950;DHT22;37974;53.218;6.640;2022-08-21T06:28:15;16.30;99.90
51950;DHT22;37974;53.218;6.640;2022-08-21T06:30:53;16.40;99.90
51950;DHT22;37974;53.218;6.640;2022-08-21T06:33:19;16.50;99.90
51950;DHT22;37974;53.218;6.640;2022-08-21T06:35:45;16.60;99.90
51950;DHT22;37974;53.218;6.640;2022-08-21T06:38:10;16.80;99.90
51950;DHT22;37974;53.218;6.640;2022-08-21T06:40:37;16.80;99.90
51950;DHT22;37974;53.218;6.640;2022-08-21T06:43:11;17.00;99.90
51950;DHT22;37974;53.218;6.640;2022-08-21T06:45:37;17.10;99.90
51950;DHT22;37974;53.218;6.640;2022-08-21T06:48:04;17.20;99.90
51950;DHT22;37974;53.218;6.640;2022-08-21T06:50:30;17.30;99.90
51950;DHT22;37974;53.218;6.640;2022-08-21T06:53:04;17.30;99.90
51950;DHT22;37974;53.218;6.640;2022-08-21T06:55:31;17.50;99.90
51950;DHT22;37974;53.218;6.640;2022-08-21T06:57:57;17.50;99.90
51950;DHT22;37974;53.218;6.640;2022-08-21T07:00:23;17.40;99.90
51950;DHT22;37974;53.218;6.640;2022-08-21T07:02:49;17.70;99.90
51950;DHT22;37974;53.218;6.640;2022-08-21T07:05:15;17.80;99.90
51950;DHT22;37974;53.218;6.640;2022-08-21T07:07:50;17.90;99.90
51950;DHT22;37974;53.218;6.640;2022-08-21T07:10:16;18.00;99.90
51950;DHT22;37974;53.218;6.640;2022-08-21T07:12:42;18.10;99.90
51950;DHT22;37974;53.218;6.640;2022-08-21T07:15:08;18.10;99.90
51950;DHT22;37974;53.218;6.640;2022-08-21T07:17:34;18.20;99.90
51950;DHT22;37974;53.218;6.640;2022-08-21T07:20:06;18.30;99.90
51950;DHT22;37974;53.218;6.640;2022-08-21T07:22:38;18.30;99.90
51950;DHT22;37974;53.218;6.640;2022-08-21T07:25:05;18.40;99.90
51950;DHT22;37974;53.218;6.640;2022-08-21T07:27:49;18.50;99.90
51950;DHT22;37974;53.218;6.640;2022-08-21T07:30:15;18.60;99.90
51950;DHT22;37974;53.218;6.640;2022-08-21T07:32:40;18.70;99.90
51950;DHT22;37974;53.218;6.640;2022-08-21T07:35:06;18.70;99.90
51950;DHT22;37974;53.218;6.640;2022-08-21T07:37:35;18.90;99.90
51950;DHT22;37974;53.218;6.640;2022-08-21T07:40:01;18.80;99.90
51950;DHT22;37974;53.218;6.640;2022-08-21T07:42:26;19.00;99.90
51950;DHT22;37974;53.218;6.640;2022-08-21T07:44:52;19.10;99.90
51950;DHT22;37974;53.218;6.640;2022-08-21T07:47:20;19.20;99.90
51950;DHT22;37974;53.218;6.640;2022-08-21T07:49:45;19.20;99.90
51950;DHT22;37974;53.218;6.640;2022-08-21T07:52:11;19.30;99.90
51950;DHT22;37974;53.218;6.640;2022-08-21T07:54:37;19.40;99.90
51950;DHT22;37974;53.218;6.640;2022-08-21T07:57:06;19.40;99.90
51950;DHT22;37974;53.218;6.640;2022-08-21T07:59:32;19.50;99.90
51950;DHT22;37974;53.218;6.640;2022-08-21T08:01:57;19.60;99.90
51950;DHT22;37974;53.218;6.640;2022-08-21T08:04:24;19.60;99.90
51950;DHT22;37974;53.218;6.640;2022-08-21T08:06:50;19.70;99.90
51950;DHT22;37974;53.218;6.640;2022-08-21T08:09:16;19.70;99.90
51950;DHT22;37974;53.218;6.640;2022-08-21T08:11:44;19.80;99.90
51950;DHT22;37974;53.218;6.640;2022-08-21T08:14:10;19.90;99.90
51950;DHT22;37974;53.218;6.640;2022-08-21T08:16:36;19.90;99.90
51950;DHT22;37974;53.218;6.640;2022-08-21T08:19:02;20.00;99.90
51950;DHT22;37974;53.218;6.640;2022-08-21T08:21:31;20.10;99.90
51950;DHT22;37974;53.218;6.640;2022-08-21T08:24:01;20.20;99.90
51950;DHT22;37974;53.218;6.640;2022-08-21T08:26:33;20.30;99.90
51950;DHT22;37974;53.218;6.640;2022-08-21T08:29:01;20.30;99.90
51950;DHT22;37974;53.218;6.640;2022-08-21T08:31:27;20.40;99.90
51950;DHT22;37974;53.218;6.640;2022-08-21T08:33:53;20.40;99.90
51950;DHT22;37974;53.218;6.640;2022-08-21T08:36:32;20.50;99.90
51950;DHT22;37974;53.218;6.640;2022-08-21T08:38:59;20.60;99.90
51950;DHT22;37974;53.218;6.640;2022-08-21T08:41:26;20.70;99.90
51950;DHT22;37974;53.218;6.640;2022-08-21T08:44:01;20.70;99.90
51950;DHT22;37974;53.218;6.640;2022-08-21T08:46:41;20.80;99.90
51950;DHT22;37974;53.218;6.640;2022-08-21T08:49:15;20.90;99.90
51950;DHT22;37974;53.218;6.640;2022-08-21T08:51:53;20.90;99.90
51950;DHT22;37974;53.218;6.640;2022-08-21T08:54:45;21.00;99.90
51950;DHT22;37974;53.218;6.640;2022-08-21T08:57:17;21.10;99.90
51950;DHT22;37974;53.218;6.640;2022-08-21T09:00:10;21.10;99.90
51950;DHT22;37974;53.218;6.640;2022-08-21T09:03:03;21.20;99.90
51950;DHT22;37974;53.218;6.640;2022-08-21T09:06:00;21.30;99.90
51950;DHT22;37974;53.218;6.640;2022-08-21T09:12:16;21.50;99.90
51950;DHT22;37974;53.218;6.640;2022-08-21T09:15:03;21.60;99.90
51950;DHT22;37974;53.218;6.640;2022-08-21T09:17:56;21.70;99.90
51950;DHT22;37974;53.218;6.640;2022-08-21T09:20:37;21.80;99.90
51950;DHT22;37974;53.218;6.640;2022-08-21T09:23:55;21.80;99.90
51950;DHT22;37974;53.218;6.640;2022-08-21T09:29:45;22.10;99.90
51950;DHT22;37974;53.218;6.640;2022-08-21T09:32:35;22.10;99.90
51950;DHT22;37974;53.218;6.640;2022-08-21T09:35:24;22.20;99.90
51950;DHT22;37974;53.218;6.640;2022-08-21T09:41:02;22.30;99.90
51950;DHT22;37974;53.218;6.640;2022-08-21T09:43:53;22.40;99.90
51950;DHT22;37974;53.218;6.640;2022-08-21T09:46:25;22.40;99.90
51950;DHT22;37974;53.218;6.640;2022-08-21T09:48:53;22.50;99.90
51950;DHT22;37974;53.218;6.640;2022-08-21T09:51:50;22.60;99.90
51950;DHT22;37974;53.218;6.640;2022-08-21T09:54:20;22.60;99.90
51950;DHT22;37974;53.218;6.640;2022-08-21T09:57:25;22.70;99.90
51950;DHT22;37974;53.218;6.640;2022-08-21T10:00:27;22.80;99.90
51950;DHT22;37974;53.218;6.640;2022-08-21T10:03:10;22.80;99.90
51950;DHT22;37974;53.218;6.640;2022-08-21T10:05:38;22.60;99.90
51950;DHT22;37974;53.218;6.640;2022-08-21T10:08:04;22.60;99.90
51950;DHT22;37974;53.218;6.640;2022-08-21T10:10:36;22.60;99.90
51950;DHT22;37974;53.218;6.640;2022-08-21T10:13:09;22.50;99.90
51950;DHT22;37974;53.218;6.640;2022-08-21T10:21:20;22.80;99.90
51950;DHT22;37974;53.218;6.640;2022-08-21T10:24:09;22.90;99.90
51950;DHT22;37974;53.218;6.640;2022-08-21T10:27:14;23.10;99.90
51950;DHT22;37974;53.218;6.640;2022-08-21T10:29:50;23.30;99.90
51950;DHT22;37974;53.218;6.640;2022-08-21T10:35:16;23.60;99.90
51950;DHT22;37974;53.218;6.640;2022-08-21T10:38:05;23.70;99.90
51950;DHT22;37974;53.218;6.640;2022-08-21T10:41:01;23.80;99.90
51950;DHT22;37974;53.218;6.640;2022-08-21T10:43:51;23.80;99.90
51950;DHT22;37974;53.218;6.640;2022-08-21T10:46:33;23.70;99.90
51950;DHT22;37974;53.218;6.640;2022-08-21T10:49:15;23.40;99.90
51950;DHT22;37974;53.218;6.640;2022-08-21T10:55:02;23.00;99.90
51950;DHT22;37974;53.218;6.640;2022-08-21T11:01:21;22.50;99.90
51950;DHT22;37974;53.218;6.640;2022-08-21T11:03:53;22.40;99.90
51950;DHT22;37974;53.218;6.640;2022-08-21T11:06:27;22.00;99.90
51950;DHT22;37974;53.218;6.640;2022-08-21T11:09:02;22.00;99.90
51950;DHT22;37974;53.218;6.640;2022-08-21T11:11:34;22.00;99.90
51950;DHT22;37974;53.218;6.640;2022-08-21T11:16:45;22.00;99.90
51950;DHT22;37974;53.218;6.640;2022-08-21T11:19:36;22.00;99.90
51950;DHT22;37974;53.218;6.640;2022-08-21T11:24:49;22.10;99.90
51950;DHT22;37974;53.218;6.640;2022-08-21T11:27:52;22.20;99.90
51950;DHT22;37974;53.218;6.640;2022-08-21T11:30:20;22.10;99.90
51950;DHT22;37974;53.218;6.640;2022-08-21T11:32:55;22.00;99.90
51950;DHT22;37974;53.218;6.640;2022-08-21T11:35:32;21.90;99.90
51950;DHT22;37974;53.218;6.640;2022-08-21T11:48:59;22.40;99.90
51950;DHT22;37974;53.218;6.640;2022-08-21T11:51:36;22.50;99.90
51950;DHT22;37974;53.218;6.640;2022-08-21T11:54:23;22.60;99.90
51950;DHT22;37974;53.218;6.640;2022-08-21T11:59:45;23.30;99.90
51950;DHT22;37974;53.218;6.640;2022-08-21T12:02:13;23.80;99.90
51950;DHT22;37974;53.218;6.640;2022-08-21T12:04:48;23.90;99.90
51950;DHT22;37974;53.218;6.640;2022-08-21T12:07:30;24.00;99.90
51950;DHT22;37974;53.218;6.640;2022-08-21T12:09:58;24.10;99.90
51950;DHT22;37974;53.218;6.640;2022-08-21T12:12:27;24.10;99.90
51950;DHT22;37974;53.218;6.640;2022-08-21T12:17:54;24.10;99.90
51950;DHT22;37974;53.218;6.640;2022-08-21T12:22:54;24.40;99.90
51950;DHT22;37974;53.218;6.640;2022-08-21T12:25:21;24.40;99.90
51950;DHT22;37974;53.218;6.640;2022-08-21T12:27:50;24.30;99.90
51950;DHT22;37974;53.218;6.640;2022-08-21T12:30:35;24.20;99.90
51950;DHT22;37974;53.218;6.640;2022-08-21T12:33:06;24.20;99.90
51950;DHT22;37974;53.218;6.640;2022-08-21T12:35:43;24.30;99.90
51950;DHT22;37974;53.218;6.640;2022-08-21T12:38:26;24.40;99.90
51950;DHT22;37974;53.218;6.640;2022-08-21T12:40:57;24.60;99.90
51950;DHT22;37974;53.218;6.640;2022-08-21T12:43:37;24.60;99.90
51950;DHT22;37974;53.218;6.640;2022-08-21T12:46:05;24.70;99.90
51950;DHT22;37974;53.218;6.640;2022-08-21T12:48:41;24.80;99.90
51950;DHT22;37974;53.218;6.640;2022-08-21T12:51:18;24.90;99.90
51950;DHT22;37974;53.218;6.640;2022-08-21T12:53:49;24.90;99.90
51950;DHT22;37974;53.218;6.640;2022-08-21T12:56:18;24.90;99.90
51950;DHT22;37974;53.218;6.640;2022-08-21T12:58:47;24.90;99.90
51950;DHT22;37974;53.218;6.640;2022-08-21T13:01:24;24.80;99.90
51950;DHT22;37974;53.218;6.640;2022-08-21T13:03:54;24.80;99.90
51950;DHT22;37974;53.218;6.640;2022-08-21T13:06:22;24.90;99.90
51950;DHT22;37974;53.218;6.640;2022-08-21T13:08:55;25.00;99.90
51950;DHT22;37974;53.218;6.640;2022-08-21T13:11:32;25.10;99.90
51950;DHT22;37974;53.218;6.640;2022-08-21T13:14:04;25.10;99.90
51950;DHT22;37974;53.218;6.640;2022-08-21T13:16:32;25.10;99.90
51950;DHT22;37974;53.218;6.640;2022-08-21T13:19:01;24.90;99.90
51950;DHT22;37974;53.218;6.640;2022-08-21T13:21:42;24.80;99.90
51950;DHT22;37974;53.218;6.640;2022-08-21T13:24:23;24.60;99.90
51950;DHT22;37974;53.218;6.640;2022-08-21T13:26:56;24.40;99.90
51950;DHT22;37974;53.218;6.640;2022-08-21T13:29:28;24.20;99.90
51950;DHT22;37974;53.218;6.640;2022-08-21T13:31:57;24.00;99.90
51950;DHT22;37974;53.218;6.640;2022-08-21T13:34:36;23.90;99.90
51950;DHT22;37974;53.218;6.640;2022-08-21T13:37:07;23.90;99.90
51950;DHT22;37974;53.218;6.640;2022-08-21T13:39:49;23.70;99.90
51950;DHT22;37974;53.218;6.640;2022-08-21T13:42:21;23.60;99.90
51950;DHT22;37974;53.218;6.640;2022-08-21T13:44:52;23.60;99.90
51950;DHT22;37974;53.218;6.640;2022-08-21T13:47:19;23.70;99.90
51950;DHT22;37974;53.218;6.640;2022-08-21T13:49:47;23.90;99.90
51950;DHT22;37974;53.218;6.640;2022-08-21T13:52:20;24.10;99.90
51950;DHT22;37974;53.218;6.640;2022-08-21T13:54:54;24.00;99.90
51950;DHT22;37974;53.218;6.640;2022-08-21T13:57:38;24.00;99.90
51950;DHT22;37974;53.218;6.640;2022-08-21T14:00:10;23.90;99.90
51950;DHT22;37974;53.218;6.640;2022-08-21T14:02:46;24.00;99.90
51950;DHT22;37974;53.218;6.640;2022-08-21T14:05:18;24.00;99.90
51950;DHT22;37974;53.218;6.640;2022-08-21T14:07:45;24.00;99.90
51950;DHT22;37974;53.218;6.640;2022-08-21T14:10:22;23.90;99.90
51950;DHT22;37974;53.218;6.640;2022-08-21T14:12:51;23.90;99.90
51950;DHT22;37974;53.218;6.640;2022-08-21T14:15:21;23.80;99.90
51950;DHT22;37974;53.218;6.640;2022-08-21T14:17:48;23.80;99.90
51950;DHT22;37974;53.218;6.640;2022-08-21T14:20:34;23.80;99.90
51950;DHT22;37974;53.218;6.640;2022-08-21T14:23:01;23.80;99.90
51950;DHT22;37974;53.218;6.640;2022-08-21T14:25:42;23.70;99.90
51950;DHT22;37974;53.218;6.640;2022-08-21T14:28:27;23.60;99.90
51950;DHT22;37974;53.218;6.640;2022-08-21T14:30:58;23.50;99.90
51950;DHT22;37974;53.218;6.640;2022-08-21T14:33:35;23.40;99.90
51950;DHT22;37974;53.218;6.640;2022-08-21T14:36:01;23.30;99.90
51950;DHT22;37974;53.218;6.640;2022-08-21T14:38:28;23.20;99.90
51950;DHT22;37974;53.218;6.640;2022-08-21T14:40:59;23.20;99.90
51950;DHT22;37974;53.218;6.640;2022-08-21T14:43:38;23.30;99.90
51950;DHT22;37974;53.218;6.640;2022-08-21T14:46:04;23.30;99.90
51950;DHT22;37974;53.218;6.640;2022-08-21T14:48:30;23.30;99.90
51950;DHT22;37974;53.218;6.640;2022-08-21T14:50:56;23.30;99.90
51950;DHT22;37974;53.218;6.640;2022-08-21T14:53:22;23.40;99.90
51950;DHT22;37974;53.218;6.640;2022-08-21T14:55:47;23.40;99.90
51950;DHT22;37974;53.218;6.640;2022-08-21T14:58:50;23.30;99.90
51950;DHT22;37974;53.218;6.640;2022-08-21T15:01:20;23.30;99.90
51950;DHT22;37974;53.218;6.640;2022-08-21T15:03:52;23.30;99.90
51950;DHT22;37974;53.218;6.640;2022-08-21T15:06:18;23.10;99.90
51950;DHT22;37974;53.218;6.640;2022-08-21T15:08:46;23.00;99.90
51950;DHT22;37974;53.218;6.640;2022-08-21T15:11:19;22.90;99.90
51950;DHT22;37974;53.218;6.640;2022-08-21T15:13:46;22.80;99.90
51950;DHT22;37974;53.218;6.640;2022-08-21T15:16:12;22.80;99.90
51950;DHT22;37974;53.218;6.640;2022-08-21T15:18:41;22.80;99.90
51950;DHT22;37974;53.218;6.640;2022-08-21T15:21:07;22.80;99.90
51950;DHT22;37974;53.218;6.640;2022-08-21T15:23:33;22.60;99.90
51950;DHT22;37974;53.218;6.640;2022-08-21T15:26:00;22.60;99.90
51950;DHT22;37974;53.218;6.640;2022-08-21T15:28:26;22.40;99.90
51950;DHT22;37974;53.218;6.640;2022-08-21T15:30:52;22.40;99.90
51950;DHT22;37974;53.218;6.640;2022-08-21T15:33:18;22.30;99.90
51950;DHT22;37974;53.218;6.640;2022-08-21T15:35:44;22.30;99.90
51950;DHT22;37974;53.218;6.640;2022-08-21T15:38:12;22.30;99.90
51950;DHT22;37974;53.218;6.640;2022-08-21T15:40:40;22.30;99.90
51950;DHT22;37974;53.218;6.640;2022-08-21T15:43:06;22.20;99.90
51950;DHT22;37974;53.218;6.640;2022-08-21T15:45:34;22.20;99.90
51950;DHT22;37974;53.218;6.640;2022-08-21T15:48:06;22.10;99.90
51950;DHT22;37974;53.218;6.640;2022-08-21T15:50:31;22.20;99.90
51950;DHT22;37974;53.218;6.640;2022-08-21T15:52:57;22.20;99.90
51950;DHT22;37974;53.218;6.640;2022-08-21T15:55:23;22.30;99.90
51950;DHT22;37974;53.218;6.640;2022-08-21T15:58:07;22.30;99.90
51950;DHT22;37974;53.218;6.640;2022-08-21T16:00:37;22.20;99.90
51950;DHT22;37974;53.218;6.640;2022-08-21T16:03:19;22.30;99.90
51950;DHT22;37974;53.218;6.640;2022-08-21T16:05:48;22.30;99.90
51950;DHT22;37974;53.218;6.640;2022-08-21T16:08:21;22.30;99.90
51950;DHT22;37974;53.218;6.640;2022-08-21T16:10:47;22.20;99.90
51950;DHT22;37974;53.218;6.640;2022-08-21T16:13:23;22.10;99.90
51950;DHT22;37974;53.218;6.640;2022-08-21T16:15:50;22.10;99.90
51950;DHT22;37974;53.218;6.640;2022-08-21T16:18:17;22.10;99.90
51950;DHT22;37974;53.218;6.640;2022-08-21T16:20:46;22.10;99.90
51950;DHT22;37974;53.218;6.640;2022-08-21T16:23:12;22.00;99.90
51950;DHT22;37974;53.218;6.640;2022-08-21T16:25:39;21.90;99.90
51950;DHT22;37974;53.218;6.640;2022-08-21T16:28:07;21.80;99.90
51950;DHT22;37974;53.218;6.640;2022-08-21T16:30:41;21.90;99.90
51950;DHT22;37974;53.218;6.640;2022-08-21T16:33:15;21.90;99.90
51950;DHT22;37974;53.218;6.640;2022-08-21T16:35:43;22.10;99.90
51950;DHT22;37974;53.218;6.640;2022-08-21T16:38:09;22.20;99.90
51950;DHT22;37974;53.218;6.640;2022-08-21T16:40:35;22.30;99.90
51950;DHT22;37974;53.218;6.640;2022-08-21T16:43:01;22.40;99.90
51950;DHT22;37974;53.218;6.640;2022-08-21T16:45:30;22.40;99.90
51950;DHT22;37974;53.218;6.640;2022-08-21T16:47:55;22.40;99.90
51950;DHT22;37974;53.218;6.640;2022-08-21T16:50:23;22.30;99.90
51950;DHT22;37974;53.218;6.640;2022-08-21T16:52:54;22.20;99.90
51950;DHT22;37974;53.218;6.640;2022-08-21T16:55:20;22.10;99.90
51950;DHT22;37974;53.218;6.640;2022-08-21T16:57:46;21.90;99.90
51950;DHT22;37974;53.218;6.640;2022-08-21T17:00:12;21.80;99.90
51950;DHT22;37974;53.218;6.640;2022-08-21T17:02:50;21.70;99.90
51950;DHT22;37974;53.218;6.640;2022-08-21T17:05:18;21.70;99.90
51950;DHT22;37974;53.218;6.640;2022-08-21T17:07:45;21.70;99.90
51950;DHT22;37974;53.218;6.640;2022-08-21T17:10:13;21.70;99.90
51950;DHT22;37974;53.218;6.640;2022-08-21T17:12:41;21.90;99.90
51950;DHT22;37974;53.218;6.640;2022-08-21T17:15:16;22.00;99.90
51950;DHT22;37974;53.218;6.640;2022-08-21T17:17:43;22.10;99.90
51950;DHT22;37974;53.218;6.640;2022-08-21T17:20:10;22.30;99.90
51950;DHT22;37974;53.218;6.640;2022-08-21T17:22:43;22.50;99.90
51950;DHT22;37974;53.218;6.640;2022-08-21T17:25:09;22.60;99.90
51950;DHT22;37974;53.218;6.640;2022-08-21T17:27:35;22.80;99.90
51950;DHT22;37974;53.218;6.640;2022-08-21T17:30:03;23.10;99.90
51950;DHT22;37974;53.218;6.640;2022-08-21T17:32:30;23.30;99.90
51950;DHT22;37974;53.218;6.640;2022-08-21T17:34:56;23.50;99.90
51950;DHT22;37974;53.218;6.640;2022-08-21T17:37:22;23.80;99.90
51950;DHT22;37974;53.218;6.640;2022-08-21T17:39:48;23.90;99.90
51950;DHT22;37974;53.218;6.640;2022-08-21T17:42:14;24.10;99.90
51950;DHT22;37974;53.218;6.640;2022-08-21T17:44:44;24.00;99.90
51950;DHT22;37974;53.218;6.640;2022-08-21T17:47:11;24.00;99.90
51950;DHT22;37974;53.218;6.640;2022-08-21T17:49:40;24.10;99.90
51950;DHT22;37974;53.218;6.640;2022-08-21T17:52:06;24.10;99.90
51950;DHT22;37974;53.218;6.640;2022-08-21T17:54:49;24.20;99.90
51950;DHT22;37974;53.218;6.640;2022-08-21T17:57:21;24.00;99.90
51950;DHT22;37974;53.218;6.640;2022-08-21T17:59:47;23.70;99.90
51950;DHT22;37974;53.218;6.640;2022-08-21T18:02:15;23.30;99.90
51950;DHT22;37974;53.218;6.640;2022-08-21T18:04:44;22.90;99.90
51950;DHT22;37974;53.218;6.640;2022-08-21T18:07:10;22.50;99.90
51950;DHT22;37974;53.218;6.640;2022-08-21T18:09:35;22.10;99.90
51950;DHT22;37974;53.218;6.640;2022-08-21T18:12:02;22.00;99.90
51950;DHT22;37974;53.218;6.640;2022-08-21T18:14:45;21.80;99.90
51950;DHT22;37974;53.218;6.640;2022-08-21T18:17:13;21.60;99.90
51950;DHT22;37974;53.218;6.640;2022-08-21T18:19:40;21.40;99.90
51950;DHT22;37974;53.218;6.640;2022-08-21T18:22:06;21.20;99.90